sensor_id;sensor_type;location;lat;lon;timestamp;temperature;humidity
16287;DHT22;8251;53.568;10.018;2023-01-28T00:02:28;6.40;65.30
16287;DHT22;8251;53.568;10.018;2023-01-28T00:04:55;6.40;64.90
16287;DHT22;8251;53.568;10.018;2023-01-28T00:07:27;6.40;64.80
16287;DHT22;8251;53.568;10.018;2023-01-28T00:10:09;6.40;65.00
16287;DHT22;8251;53.568;10.018;2023-01-28T00:12:51;6.40;65.10
16287;DHT22;8251;53.568;10.018;2023-01-28T00:15:20;6.40;65.40
16287;DHT22;8251;53.568;10.018;2023-01-28T00:17:47;6.40;65.40
16287;DHT22;8251;53.568;10.018;2023-01-28T00:20:14;6.40;65.30
16287;DHT22;8251;53.568;10.018;2023-01-28T00:22:48;6.40;65.50
16287;DHT22;8251;53.568;10.018;2023-01-28T00:25:16;6.40;65.10
16287;DHT22;8251;53.568;10.018;2023-01-28T00:27:49;6.40;64.90
16287;DHT22;8251;53.568;10.018;2023-01-28T00:30:20;6.40;65.00
16287;DHT22;8251;53.568;10.018;2023-01-28T00:32:47;6.40;65.30
16287;DHT22;8251;53.568;10.018;2023-01-28T00:35:17;6.50;65.50
16287;DHT22;8251;53.568;10.018;2023-01-28T00:37:44;6.50;65.20
16287;DHT22;8251;53.568;10.018;2023-01-28T00:40:12;6.50;65.30
16287;DHT22;8251;53.568;10.018;2023-01-28T00:42:40;6.50;65.60
16287;DHT22;8251;53.568;10.018;2023-01-28T00:45:08;6.50;65.50
16287;DHT22;8251;53.568;10.018;2023-01-28T00:47:35;6.40;65.60
16287;DHT22;8251;53.568;10.018;2023-01-28T00:50:03;6.40;64.70
16287;DHT22;8251;53.568;10.018;2023-01-28T00:52:31;6.40;65.50
16287;DHT22;8251;53.568;10.018;2023-01-28T00:54:58;6.40;65.90
16287;DHT22;8251;53.568;10.018;2023-01-28T00:57:28;6.40;65.70
16287;DHT22;8251;53.568;10.018;2023-01-28T00:59:56;6.40;65.80
16287;DHT22;8251;53.568;10.018;2023-01-28T01:02:24;6.40;66.10
16287;DHT22;8251;53.568;10.018;2023-01-28T01:04:54;6.40;65.30
16287;DHT22;8251;53.568;10.018;2023-01-28T01:07:29;6.30;64.10
16287;DHT22;8251;53.568;10.018;2023-01-28T01:10:08;6.20;64.40
16287;DHT22;8251;53.568;10.018;2023-01-28T01:12:35;6.20;64.60
16287;DHT22;8251;53.568;10.018;2023-01-28T01:15:13;6.10;64.70
16287;DHT22;8251;53.568;10.018;2023-01-28T01:17:43;6.20;65.10
16287;DHT22;8251;53.568;10.018;2023-01-28T01:20:16;6.20;64.70
16287;DHT22;8251;53.568;10.018;2023-01-28T01:22:43;6.20;64.80
16287;DHT22;8251;53.568;10.018;2023-01-28T01:25:12;6.20;64.60
16287;DHT22;8251;53.568;10.018;2023-01-28T01:27:39;6.30;64.70
16287;DHT22;8251;53.568;10.018;2023-01-28T01:30:19;6.30;64.50
16287;DHT22;8251;53.568;10.018;2023-01-28T01:32:47;6.30;64.60
16287;DHT22;8251;53.568;10.018;2023-01-28T01:35:14;6.30;64.50
16287;DHT22;8251;53.568;10.018;2023-01-28T01:37:42;6.30;64.90
16287;DHT22;8251;53.568;10.018;2023-01-28T01:40:10;6.30;65.10
16287;DHT22;8251;53.568;10.018;2023-01-28T01:42:37;6.30;65.20
16287;DHT22;8251;53.568;10.018;2023-01-28T01:45:13;6.30;65.70
16287;DHT22;8251;53.568;10.018;2023-01-28T01:47:44;6.30;65.50
16287;DHT22;8251;53.568;10.018;2023-01-28T01:50:17;6.30;65.30
16287;DHT22;8251;53.568;10.018;2023-01-28T01:52:59;6.20;64.00
16287;DHT22;8251;53.568;10.018;2023-01-28T01:55:30;6.20;64.40
16287;DHT22;8251;53.568;10.018;2023-01-28T01:58:23;6.20;64.10
16287;DHT22;8251;53.568;10.018;2023-01-28T02:00:52;6.10;63.90
16287;DHT22;8251;53.568;10.018;2023-01-28T02:03:27;6.10;64.30
16287;DHT22;8251;53.568;10.018;2023-01-28T02:06:01;6.10;64.50
16287;DHT22;8251;53.568;10.018;2023-01-28T02:08:37;6.10;64.40
16287;DHT22;8251;53.568;10.018;2023-01-28T02:11:07;6.10;65.30
16287;DHT22;8251;53.568;10.018;2023-01-28T02:13:49;6.10;65.50
16287;DHT22;8251;53.568;10.018;2023-01-28T02:16:19;6.10;65.40
16287;DHT22;8251;53.568;10.018;2023-01-28T02:18:46;6.10;64.80
16287;DHT22;8251;53.568;10.018;2023-01-28T02:24:28;6.10;64.80
16287;DHT22;8251;53.568;10.018;2023-01-28T02:27:19;6.00;65.00
16287;DHT22;8251;53.568;10.018;2023-01-28T02:29:55;6.00;65.20
16287;DHT22;8251;53.568;10.018;2023-01-28T02:32:42;6.00;65.30
16287;DHT22;8251;53.568;10.018;2023-01-28T02:35:21;6.00;65.60
16287;DHT22;8251;53.568;10.018;2023-01-28T02:37:53;6.00;65.80
16287;DHT22;8251;53.568;10.018;2023-01-28T02:40:39;6.00;65.70
16287;DHT22;8251;53.568;10.018;2023-01-28T02:43:31;6.00;65.70
16287;DHT22;8251;53.568;10.018;2023-01-28T02:46:13;6.00;65.90
16287;DHT22;8251;53.568;10.018;2023-01-28T02:48:59;6.00;66.10
16287;DHT22;8251;53.568;10.018;2023-01-28T02:51:37;6.00;66.10
16287;DHT22;8251;53.568;10.018;2023-01-28T02:54:12;5.90;66.60
16287;DHT22;8251;53.568;10.018;2023-01-28T02:56:44;5.90;66.30
16287;DHT22;8251;53.568;10.018;2023-01-28T02:59:19;5.80;65.70
16287;DHT22;8251;53.568;10.018;2023-01-28T03:02:12;5.80;65.80
16287;DHT22;8251;53.568;10.018;2023-01-28T03:04:46;5.80;65.70
16287;DHT22;8251;53.568;10.018;2023-01-28T03:07:16;5.80;66.10
16287;DHT22;8251;53.568;10.018;2023-01-28T03:09:46;5.90;66.00
16287;DHT22;8251;53.568;10.018;2023-01-28T03:12:18;5.90;66.30
16287;DHT22;8251;53.568;10.018;2023-01-28T03:15:08;5.90;66.30
16287;DHT22;8251;53.568;10.018;2023-01-28T03:17:59;5.90;66.50
16287;DHT22;8251;53.568;10.018;2023-01-28T03:21:03;5.90;66.20
16287;DHT22;8251;53.568;10.018;2023-01-28T03:23:54;5.90;66.10
16287;DHT22;8251;53.568;10.018;2023-01-28T03:26:49;5.90;66.60
16287;DHT22;8251;53.568;10.018;2023-01-28T03:29:36;5.90;66.10
16287;DHT22;8251;53.568;10.018;2023-01-28T03:32:22;5.80;65.90
16287;DHT22;8251;53.568;10.018;2023-01-28T03:35:09;5.80;65.20
16287;DHT22;8251;53.568;10.018;2023-01-28T03:37:55;5.90;65.10
16287;DHT22;8251;53.568;10.018;2023-01-28T03:40:26;5.90;65.60
16287;DHT22;8251;53.568;10.018;2023-01-28T03:42:57;5.90;65.70
16287;DHT22;8251;53.568;10.018;2023-01-28T03:45:28;5.90;66.00
16287;DHT22;8251;53.568;10.018;2023-01-28T03:47:55;5.80;66.20
16287;DHT22;8251;53.568;10.018;2023-01-28T03:50:26;5.80;66.30
16287;DHT22;8251;53.568;10.018;2023-01-28T03:52:56;5.80;66.20
16287;DHT22;8251;53.568;10.018;2023-01-28T03:55:36;5.80;66.40
16287;DHT22;8251;53.568;10.018;2023-01-28T03:58:03;5.80;66.60
16287;DHT22;8251;53.568;10.018;2023-01-28T04:00:31;5.80;66.80
16287;DHT22;8251;53.568;10.018;2023-01-28T04:03:02;5.80;66.60
16287;DHT22;8251;53.568;10.018;2023-01-28T04:05:30;5.80;66.40
16287;DHT22;8251;53.568;10.018;2023-01-28T04:07:57;5.80;66.00
16287;DHT22;8251;53.568;10.018;2023-01-28T04:10:29;5.80;65.90
16287;DHT22;8251;53.568;10.018;2023-01-28T04:12:56;5.90;65.90
16287;DHT22;8251;53.568;10.018;2023-01-28T04:15:23;5.90;65.70
16287;DHT22;8251;53.568;10.018;2023-01-28T04:17:50;5.90;65.70
16287;DHT22;8251;53.568;10.018;2023-01-28T04:20:17;5.80;66.00
16287;DHT22;8251;53.568;10.018;2023-01-28T04:22:45;5.80;66.60
16287;DHT22;8251;53.568;10.018;2023-01-28T04:25:15;5.80;67.90
16287;DHT22;8251;53.568;10.018;2023-01-28T04:27:42;5.70;67.10
16287;DHT22;8251;53.568;10.018;2023-01-28T04:30:10;5.70;67.30
16287;DHT22;8251;53.568;10.018;2023-01-28T04:32:37;5.70;67.50
16287;DHT22;8251;53.568;10.018;2023-01-28T04:35:04;5.70;67.60
16287;DHT22;8251;53.568;10.018;2023-01-28T04:37:31;5.70;67.80
16287;DHT22;8251;53.568;10.018;2023-01-28T04:39:59;5.70;67.90
16287;DHT22;8251;53.568;10.018;2023-01-28T04:42:26;5.60;68.00
16287;DHT22;8251;53.568;10.018;2023-01-28T04:44:53;5.60;68.20
16287;DHT22;8251;53.568;10.018;2023-01-28T04:47:20;5.60;68.30
16287;DHT22;8251;53.568;10.018;2023-01-28T04:49:47;5.60;68.30
16287;DHT22;8251;53.568;10.018;2023-01-28T04:52:14;5.60;68.40
16287;DHT22;8251;53.568;10.018;2023-01-28T04:54:42;5.60;68.50
16287;DHT22;8251;53.568;10.018;2023-01-28T04:57:10;5.60;68.70
16287;DHT22;8251;53.568;10.018;2023-01-28T04:59:37;5.50;68.90
16287;DHT22;8251;53.568;10.018;2023-01-28T05:02:04;5.60;68.90
16287;DHT22;8251;53.568;10.018;2023-01-28T05:04:31;5.60;69.10
16287;DHT22;8251;53.568;10.018;2023-01-28T05:07:00;5.50;69.10
16287;DHT22;8251;53.568;10.018;2023-01-28T05:09:27;5.50;69.20
16287;DHT22;8251;53.568;10.018;2023-01-28T05:11:54;5.50;69.40
16287;DHT22;8251;53.568;10.018;2023-01-28T05:14:22;5.50;69.50
16287;DHT22;8251;53.568;10.018;2023-01-28T05:16:49;5.50;69.50
16287;DHT22;8251;53.568;10.018;2023-01-28T05:19:19;5.40;69.40
16287;DHT22;8251;53.568;10.018;2023-01-28T05:21:46;5.40;69.50
16287;DHT22;8251;53.568;10.018;2023-01-28T05:24:13;5.40;69.50
16287;DHT22;8251;53.568;10.018;2023-01-28T05:26:40;5.40;69.70
16287;DHT22;8251;53.568;10.018;2023-01-28T05:29:10;5.30;69.70
16287;DHT22;8251;53.568;10.018;2023-01-28T05:31:40;5.30;69.70
16287;DHT22;8251;53.568;10.018;2023-01-28T05:34:07;5.30;69.70
16287;DHT22;8251;53.568;10.018;2023-01-28T05:36:34;5.20;69.60
16287;DHT22;8251;53.568;10.018;2023-01-28T05:39:04;5.30;69.80
16287;DHT22;8251;53.568;10.018;2023-01-28T05:41:32;5.20;69.90
16287;DHT22;8251;53.568;10.018;2023-01-28T05:43:59;5.20;69.90
16287;DHT22;8251;53.568;10.018;2023-01-28T05:46:26;5.20;70.10
16287;DHT22;8251;53.568;10.018;2023-01-28T05:48:57;5.10;70.20
16287;DHT22;8251;53.568;10.018;2023-01-28T05:51:24;5.10;70.30
16287;DHT22;8251;53.568;10.018;2023-01-28T05:53:51;5.10;70.60
16287;DHT22;8251;53.568;10.018;2023-01-28T05:56:22;5.00;70.60
16287;DHT22;8251;53.568;10.018;2023-01-28T05:58:52;5.00;70.80
16287;DHT22;8251;53.568;10.018;2023-01-28T06:01:19;5.00;71.00
16287;DHT22;8251;53.568;10.018;2023-01-28T06:03:52;4.90;71.40
16287;DHT22;8251;53.568;10.018;2023-01-28T06:06:20;4.90;71.70
16287;DHT22;8251;53.568;10.018;2023-01-28T06:08:47;4.90;71.90
16287;DHT22;8251;53.568;10.018;2023-01-28T06:11:17;4.90;72.00
16287;DHT22;8251;53.568;10.018;2023-01-28T06:13:44;4.80;72.00
16287;DHT22;8251;53.568;10.018;2023-01-28T06:16:16;4.80;72.50
16287;DHT22;8251;53.568;10.018;2023-01-28T06:18:43;4.80;72.70
16287;DHT22;8251;53.568;10.018;2023-01-28T06:21:10;4.80;73.00
16287;DHT22;8251;53.568;10.018;2023-01-28T06:23:38;4.70;73.30
16287;DHT22;8251;53.568;10.018;2023-01-28T06:26:05;4.70;73.80
16287;DHT22;8251;53.568;10.018;2023-01-28T06:28:32;4.70;74.20
16287;DHT22;8251;53.568;10.018;2023-01-28T06:30:59;4.70;74.20
16287;DHT22;8251;53.568;10.018;2023-01-28T06:33:26;4.70;74.20
16287;DHT22;8251;53.568;10.018;2023-01-28T06:35:54;4.70;74.20
16287;DHT22;8251;53.568;10.018;2023-01-28T06:38:21;4.70;74.10
16287;DHT22;8251;53.568;10.018;2023-01-28T06:40:51;4.70;74.10
16287;DHT22;8251;53.568;10.018;2023-01-28T06:43:23;4.70;74.00
16287;DHT22;8251;53.568;10.018;2023-01-28T06:45:52;4.80;74.10
16287;DHT22;8251;53.568;10.018;2023-01-28T06:48:19;4.80;74.00
16287;DHT22;8251;53.568;10.018;2023-01-28T06:50:46;4.80;74.00
16287;DHT22;8251;53.568;10.018;2023-01-28T06:53:19;4.80;73.90
16287;DHT22;8251;53.568;10.018;2023-01-28T06:55:46;4.80;74.00
16287;DHT22;8251;53.568;10.018;2023-01-28T06:58:14;4.80;74.10
16287;DHT22;8251;53.568;10.018;2023-01-28T07:00:41;4.80;74.00
16287;DHT22;8251;53.568;10.018;2023-01-28T07:03:08;4.70;74.00
16287;DHT22;8251;53.568;10.018;2023-01-28T07:05:35;4.70;74.20
16287;DHT22;8251;53.568;10.018;2023-01-28T07:08:03;4.70;74.10
16287;DHT22;8251;53.568;10.018;2023-01-28T07:10:30;4.60;74.00
16287;DHT22;8251;53.568;10.018;2023-01-28T07:13:02;4.70;74.00
16287;DHT22;8251;53.568;10.018;2023-01-28T07:15:30;4.60;74.10
16287;DHT22;8251;53.568;10.018;2023-01-28T07:17:57;4.60;74.20
16287;DHT22;8251;53.568;10.018;2023-01-28T07:20:24;4.60;74.30
16287;DHT22;8251;53.568;10.018;2023-01-28T07:22:51;4.50;75.20
16287;DHT22;8251;53.568;10.018;2023-01-28T07:25:18;4.50;74.40
16287;DHT22;8251;53.568;10.018;2023-01-28T07:27:47;4.50;74.60
16287;DHT22;8251;53.568;10.018;2023-01-28T07:30:15;4.40;74.50
16287;DHT22;8251;53.568;10.018;2023-01-28T07:32:44;4.40;74.50
16287;DHT22;8251;53.568;10.018;2023-01-28T07:35:12;4.40;74.60
16287;DHT22;8251;53.568;10.018;2023-01-28T07:37:39;4.40;74.50
16287;DHT22;8251;53.568;10.018;2023-01-28T07:40:07;4.30;75.50
16287;DHT22;8251;53.568;10.018;2023-01-28T07:42:34;4.40;74.70
16287;DHT22;8251;53.568;10.018;2023-01-28T07:45:01;4.30;74.60
16287;DHT22;8251;53.568;10.018;2023-01-28T07:47:33;4.30;74.60
16287;DHT22;8251;53.568;10.018;2023-01-28T07:50:04;4.20;74.70
16287;DHT22;8251;53.568;10.018;2023-01-28T07:52:31;4.30;74.80
16287;DHT22;8251;53.568;10.018;2023-01-28T07:55:04;4.30;75.00
16287;DHT22;8251;53.568;10.018;2023-01-28T07:57:34;4.30;75.10
16287;DHT22;8251;53.568;10.018;2023-01-28T08:00:01;4.30;75.00
16287;DHT22;8251;53.568;10.018;2023-01-28T08:02:31;4.30;75.10
16287;DHT22;8251;53.568;10.018;2023-01-28T08:04:58;4.30;75.20
16287;DHT22;8251;53.568;10.018;2023-01-28T08:07:28;4.30;75.30
16287;DHT22;8251;53.568;10.018;2023-01-28T08:09:56;4.20;75.00
16287;DHT22;8251;53.568;10.018;2023-01-28T08:12:23;4.20;75.00
16287;DHT22;8251;53.568;10.018;2023-01-28T08:14:50;4.20;75.20
16287;DHT22;8251;53.568;10.018;2023-01-28T08:17:17;4.20;75.20
16287;DHT22;8251;53.568;10.018;2023-01-28T08:19:44;4.10;75.30
16287;DHT22;8251;53.568;10.018;2023-01-28T08:22:13;4.10;75.40
16287;DHT22;8251;53.568;10.018;2023-01-28T08:24:41;4.10;75.30
16287;DHT22;8251;53.568;10.018;2023-01-28T08:27:08;4.10;75.30
16287;DHT22;8251;53.568;10.018;2023-01-28T08:29:35;4.20;76.20
16287;DHT22;8251;53.568;10.018;2023-01-28T08:32:02;4.10;75.10
16287;DHT22;8251;53.568;10.018;2023-01-28T08:34:29;4.10;75.10
16287;DHT22;8251;53.568;10.018;2023-01-28T08:36:56;4.20;75.10
16287;DHT22;8251;53.568;10.018;2023-01-28T08:39:23;4.10;74.90
16287;DHT22;8251;53.568;10.018;2023-01-28T08:41:51;4.10;74.60
16287;DHT22;8251;53.568;10.018;2023-01-28T08:44:18;4.10;74.70
16287;DHT22;8251;53.568;10.018;2023-01-28T08:46:48;4.20;74.80
16287;DHT22;8251;53.568;10.018;2023-01-28T08:49:15;4.30;75.00
16287;DHT22;8251;53.568;10.018;2023-01-28T08:51:42;4.20;74.40
16287;DHT22;8251;53.568;10.018;2023-01-28T08:54:09;4.30;74.30
16287;DHT22;8251;53.568;10.018;2023-01-28T08:56:38;4.30;74.20
16287;DHT22;8251;53.568;10.018;2023-01-28T08:59:09;4.30;74.30
16287;DHT22;8251;53.568;10.018;2023-01-28T09:01:35;4.30;74.40
16287;DHT22;8251;53.568;10.018;2023-01-28T09:04:02;4.30;73.80
16287;DHT22;8251;53.568;10.018;2023-01-28T09:06:29;4.30;73.80
16287;DHT22;8251;53.568;10.018;2023-01-28T09:08:59;4.30;73.90
16287;DHT22;8251;53.568;10.018;2023-01-28T09:11:26;4.30;73.70
16287;DHT22;8251;53.568;10.018;2023-01-28T09:13:56;4.40;74.10
16287;DHT22;8251;53.568;10.018;2023-01-28T09:16:25;4.40;74.20
16287;DHT22;8251;53.568;10.018;2023-01-28T09:18:52;4.50;74.10
16287;DHT22;8251;53.568;10.018;2023-01-28T09:21:22;4.50;74.10
16287;DHT22;8251;53.568;10.018;2023-01-28T09:23:49;4.60;73.80
16287;DHT22;8251;53.568;10.018;2023-01-28T09:26:16;4.80;73.30
16287;DHT22;8251;53.568;10.018;2023-01-28T09:28:43;4.90;72.80
16287;DHT22;8251;53.568;10.018;2023-01-28T09:31:11;5.10;72.90
16287;DHT22;8251;53.568;10.018;2023-01-28T09:33:39;5.40;72.10
16287;DHT22;8251;53.568;10.018;2023-01-28T09:36:10;5.60;70.80
16287;DHT22;8251;53.568;10.018;2023-01-28T09:38:37;5.80;70.50
16287;DHT22;8251;53.568;10.018;2023-01-28T09:41:17;5.90;69.50
16287;DHT22;8251;53.568;10.018;2023-01-28T09:43:58;6.10;69.30
16287;DHT22;8251;53.568;10.018;2023-01-28T09:46:31;6.20;68.60
16287;DHT22;8251;53.568;10.018;2023-01-28T09:49:00;6.20;68.20
16287;DHT22;8251;53.568;10.018;2023-01-28T09:51:34;6.20;68.10
16287;DHT22;8251;53.568;10.018;2023-01-28T09:54:04;6.20;68.60
16287;DHT22;8251;53.568;10.018;2023-01-28T09:56:35;6.20;68.70
16287;DHT22;8251;53.568;10.018;2023-01-28T09:59:16;6.30;68.40
16287;DHT22;8251;53.568;10.018;2023-01-28T10:01:49;6.40;68.60
16287;DHT22;8251;53.568;10.018;2023-01-28T10:04:28;6.40;68.10
16287;DHT22;8251;53.568;10.018;2023-01-28T10:07:12;6.30;67.50
16287;DHT22;8251;53.568;10.018;2023-01-28T10:09:48;6.30;68.20
16287;DHT22;8251;53.568;10.018;2023-01-28T10:12:30;6.20;68.60
16287;DHT22;8251;53.568;10.018;2023-01-28T10:15:22;6.20;68.80
16287;DHT22;8251;53.568;10.018;2023-01-28T10:17:58;6.20;68.30
16287;DHT22;8251;53.568;10.018;2023-01-28T10:20:31;6.30;68.20
16287;DHT22;8251;53.568;10.018;2023-01-28T10:23:03;6.20;68.30
16287;DHT22;8251;53.568;10.018;2023-01-28T10:25:37;6.20;68.80
16287;DHT22;8251;53.568;10.018;2023-01-28T10:28:17;6.10;68.40
16287;DHT22;8251;53.568;10.018;2023-01-28T10:30:45;6.10;68.90
16287;DHT22;8251;53.568;10.018;2023-01-28T10:33:18;6.20;68.80
16287;DHT22;8251;53.568;10.018;2023-01-28T10:35:52;6.30;68.40
16287;DHT22;8251;53.568;10.018;2023-01-28T10:38:23;6.30;68.00
16287;DHT22;8251;53.568;10.018;2023-01-28T10:40:55;6.40;68.30
16287;DHT22;8251;53.568;10.018;2023-01-28T10:43:28;6.40;67.40
16287;DHT22;8251;53.568;10.018;2023-01-28T10:46:03;6.50;67.60
16287;DHT22;8251;53.568;10.018;2023-01-28T10:48:32;6.50;67.50
16287;DHT22;8251;53.568;10.018;2023-01-28T10:51:04;6.60;67.80
16287;DHT22;8251;53.568;10.018;2023-01-28T10:53:35;6.50;66.60
16287;DHT22;8251;53.568;10.018;2023-01-28T10:56:07;6.50;67.20
16287;DHT22;8251;53.568;10.018;2023-01-28T10:58:45;6.50;67.80
16287;DHT22;8251;53.568;10.018;2023-01-28T11:01:12;6.50;68.20
16287;DHT22;8251;53.568;10.018;2023-01-28T11:03:52;6.40;68.30
16287;DHT22;8251;53.568;10.018;2023-01-28T11:06:25;6.40;68.70
16287;DHT22;8251;53.568;10.018;2023-01-28T11:08:53;6.40;68.60
16287;DHT22;8251;53.568;10.018;2023-01-28T11:11:23;6.40;68.60
16287;DHT22;8251;53.568;10.018;2023-01-28T11:13:54;6.40;68.20
16287;DHT22;8251;53.568;10.018;2023-01-28T11:16:23;6.50;68.20
16287;DHT22;8251;53.568;10.018;2023-01-28T11:18:53;6.50;68.40
16287;DHT22;8251;53.568;10.018;2023-01-28T11:21:28;6.50;67.80
16287;DHT22;8251;53.568;10.018;2023-01-28T11:23:59;6.40;68.00
16287;DHT22;8251;53.568;10.018;2023-01-28T11:26:30;6.50;67.80
16287;DHT22;8251;53.568;10.018;2023-01-28T11:28:58;6.50;67.50
16287;DHT22;8251;53.568;10.018;2023-01-28T11:31:25;6.50;67.00
16287;DHT22;8251;53.568;10.018;2023-01-28T11:33:55;6.60;67.30
16287;DHT22;8251;53.568;10.018;2023-01-28T11:36:28;6.50;69.20
16287;DHT22;8251;53.568;10.018;2023-01-28T11:39:15;6.40;68.90
16287;DHT22;8251;53.568;10.018;2023-01-28T11:41:43;6.40;68.70
16287;DHT22;8251;53.568;10.018;2023-01-28T11:44:14;6.40;68.70
16287;DHT22;8251;53.568;10.018;2023-01-28T11:46:57;6.40;69.80
16287;DHT22;8251;53.568;10.018;2023-01-28T11:49:33;6.40;70.00
16287;DHT22;8251;53.568;10.018;2023-01-28T11:52:17;6.50;69.60
16287;DHT22;8251;53.568;10.018;2023-01-28T11:54:55;6.50;69.30
16287;DHT22;8251;53.568;10.018;2023-01-28T11:57:30;6.50;69.00
16287;DHT22;8251;53.568;10.018;2023-01-28T12:00:22;6.50;69.20
16287;DHT22;8251;53.568;10.018;2023-01-28T12:03:02;6.40;69.70
16287;DHT22;8251;53.568;10.018;2023-01-28T12:05:45;6.40;69.80
16287;DHT22;8251;53.568;10.018;2023-01-28T12:08:20;6.30;69.80
16287;DHT22;8251;53.568;10.018;2023-01-28T12:11:01;6.30;70.10
16287;DHT22;8251;53.568;10.018;2023-01-28T12:13:41;6.30;70.30
16287;DHT22;8251;53.568;10.018;2023-01-28T12:16:21;6.40;70.10
16287;DHT22;8251;53.568;10.018;2023-01-28T12:19:23;6.30;70.30
16287;DHT22;8251;53.568;10.018;2023-01-28T12:22:06;6.30;70.20
16287;DHT22;8251;53.568;10.018;2023-01-28T12:24:45;6.30;70.30
16287;DHT22;8251;53.568;10.018;2023-01-28T12:27:29;6.30;70.90
16287;DHT22;8251;53.568;10.018;2023-01-28T12:30:10;6.40;71.10
16287;DHT22;8251;53.568;10.018;2023-01-28T12:32:48;6.30;71.20
16287;DHT22;8251;53.568;10.018;2023-01-28T12:35:34;6.20;71.00
16287;DHT22;8251;53.568;10.018;2023-01-28T12:38:13;6.10;71.70
16287;DHT22;8251;53.568;10.018;2023-01-28T12:40:57;6.00;71.70
16287;DHT22;8251;53.568;10.018;2023-01-28T12:43:56;6.00;72.70
16287;DHT22;8251;53.568;10.018;2023-01-28T12:46:31;6.00;72.90
16287;DHT22;8251;53.568;10.018;2023-01-28T12:49:07;5.90;73.40
16287;DHT22;8251;53.568;10.018;2023-01-28T12:51:44;5.90;73.60
16287;DHT22;8251;53.568;10.018;2023-01-28T12:54:16;6.00;73.30
16287;DHT22;8251;53.568;10.018;2023-01-28T12:56:51;6.00;72.70
16287;DHT22;8251;53.568;10.018;2023-01-28T12:59:25;6.10;73.00
16287;DHT22;8251;53.568;10.018;2023-01-28T13:02:05;6.00;73.00
16287;DHT22;8251;53.568;10.018;2023-01-28T13:04:53;6.00;73.20
16287;DHT22;8251;53.568;10.018;2023-01-28T13:07:31;5.90;73.80
16287;DHT22;8251;53.568;10.018;2023-01-28T13:10:02;6.00;73.30
16287;DHT22;8251;53.568;10.018;2023-01-28T13:12:32;6.00;73.40
16287;DHT22;8251;53.568;10.018;2023-01-28T13:15:01;6.00;73.80
16287;DHT22;8251;53.568;10.018;2023-01-28T13:17:29;6.00;73.40
16287;DHT22;8251;53.568;10.018;2023-01-28T13:19:58;6.00;73.40
16287;DHT22;8251;53.568;10.018;2023-01-28T13:22:28;6.00;74.30
16287;DHT22;8251;53.568;10.018;2023-01-28T13:24:56;5.80;75.30
16287;DHT22;8251;53.568;10.018;2023-01-28T13:27:26;5.80;74.80
16287;DHT22;8251;53.568;10.018;2023-01-28T13:30:22;5.60;74.80
16287;DHT22;8251;53.568;10.018;2023-01-28T13:32:57;5.50;75.60
16287;DHT22;8251;53.568;10.018;2023-01-28T13:35:30;5.60;75.80
16287;DHT22;8251;53.568;10.018;2023-01-28T13:38:12;5.70;76.10
16287;DHT22;8251;53.568;10.018;2023-01-28T13:40:42;5.70;75.70
16287;DHT22;8251;53.568;10.018;2023-01-28T13:43:26;5.90;75.80
16287;DHT22;8251;53.568;10.018;2023-01-28T13:46:00;5.70;75.50
16287;DHT22;8251;53.568;10.018;2023-01-28T13:48:31;5.70;76.00
16287;DHT22;8251;53.568;10.018;2023-01-28T13:50:59;5.60;75.90
16287;DHT22;8251;53.568;10.018;2023-01-28T13:53:36;5.80;75.90
16287;DHT22;8251;53.568;10.018;2023-01-28T13:56:14;5.80;75.90
16287;DHT22;8251;53.568;10.018;2023-01-28T14:02:06;5.70;76.50
16287;DHT22;8251;53.568;10.018;2023-01-28T14:08:12;6.00;76.00
16287;DHT22;8251;53.568;10.018;2023-01-28T14:10:54;6.10;75.20
16287;DHT22;8251;53.568;10.018;2023-01-28T14:13:43;6.10;74.70
16287;DHT22;8251;53.568;10.018;2023-01-28T14:16:37;6.00;74.80
16287;DHT22;8251;53.568;10.018;2023-01-28T14:19:11;6.00;74.90
16287;DHT22;8251;53.568;10.018;2023-01-28T14:21:38;5.90;75.00
16287;DHT22;8251;53.568;10.018;2023-01-28T14:24:13;6.00;75.00
16287;DHT22;8251;53.568;10.018;2023-01-28T14:26:48;6.10;75.00
16287;DHT22;8251;53.568;10.018;2023-01-28T14:29:31;6.10;74.80
16287;DHT22;8251;53.568;10.018;2023-01-28T14:32:04;6.20;74.80
16287;DHT22;8251;53.568;10.018;2023-01-28T14:34:34;6.10;74.40
16287;DHT22;8251;53.568;10.018;2023-01-28T14:37:04;6.10;75.00
16287;DHT22;8251;53.568;10.018;2023-01-28T14:39:43;5.90;75.80
16287;DHT22;8251;53.568;10.018;2023-01-28T14:42:16;5.80;76.10
16287;DHT22;8251;53.568;10.018;2023-01-28T14:44:47;5.70;76.50
16287;DHT22;8251;53.568;10.018;2023-01-28T14:47:40;5.70;77.00
16287;DHT22;8251;53.568;10.018;2023-01-28T14:50:42;5.70;76.80
16287;DHT22;8251;53.568;10.018;2023-01-28T14:53:33;5.90;76.80
16287;DHT22;8251;53.568;10.018;2023-01-28T14:56:10;5.80;76.50
16287;DHT22;8251;53.568;10.018;2023-01-28T14:58:43;5.90;76.70
16287;DHT22;8251;53.568;10.018;2023-01-28T15:01:22;5.90;76.10
16287;DHT22;8251;53.568;10.018;2023-01-28T15:03:50;5.90;76.40
16287;DHT22;8251;53.568;10.018;2023-01-28T15:06:20;5.90;76.20
16287;DHT22;8251;53.568;10.018;2023-01-28T15:08:49;5.90;76.60
16287;DHT22;8251;53.568;10.018;2023-01-28T15:11:21;5.80;77.00
16287;DHT22;8251;53.568;10.018;2023-01-28T15:13:52;5.80;77.20
16287;DHT22;8251;53.568;10.018;2023-01-28T15:16:22;5.90;76.90
16287;DHT22;8251;53.568;10.018;2023-01-28T15:18:50;5.80;76.80
16287;DHT22;8251;53.568;10.018;2023-01-28T15:21:24;5.80;76.60
16287;DHT22;8251;53.568;10.018;2023-01-28T15:23:56;5.90;77.00
16287;DHT22;8251;53.568;10.018;2023-01-28T15:26:24;5.90;77.50
16287;DHT22;8251;53.568;10.018;2023-01-28T15:28:53;5.80;77.10
16287;DHT22;8251;53.568;10.018;2023-01-28T15:31:22;5.80;77.00
16287;DHT22;8251;53.568;10.018;2023-01-28T15:33:56;5.70;77.40
16287;DHT22;8251;53.568;10.018;2023-01-28T15:36:25;5.70;77.30
16287;DHT22;8251;53.568;10.018;2023-01-28T15:38:52;5.70;77.70
16287;DHT22;8251;53.568;10.018;2023-01-28T15:41:23;5.80;77.60
16287;DHT22;8251;53.568;10.018;2023-01-28T15:43:51;5.70;77.60
16287;DHT22;8251;53.568;10.018;2023-01-28T15:46:21;5.70;78.00
16287;DHT22;8251;53.568;10.018;2023-01-28T15:48:52;5.70;78.20
16287;DHT22;8251;53.568;10.018;2023-01-28T15:51:25;5.60;77.90
16287;DHT22;8251;53.568;10.018;2023-01-28T15:53:56;5.70;78.40
16287;DHT22;8251;53.568;10.018;2023-01-28T15:56:26;5.60;78.70
16287;DHT22;8251;53.568;10.018;2023-01-28T15:59:07;5.60;79.20
16287;DHT22;8251;53.568;10.018;2023-01-28T16:01:34;5.50;78.90
16287;DHT22;8251;53.568;10.018;2023-01-28T16:04:05;5.50;78.70
16287;DHT22;8251;53.568;10.018;2023-01-28T16:06:47;5.50;79.60
16287;DHT22;8251;53.568;10.018;2023-01-28T16:09:24;5.50;80.10
16287;DHT22;8251;53.568;10.018;2023-01-28T16:11:52;5.50;80.00
16287;DHT22;8251;53.568;10.018;2023-01-28T16:14:24;5.40;80.10
16287;DHT22;8251;53.568;10.018;2023-01-28T16:16:53;5.50;80.50
16287;DHT22;8251;53.568;10.018;2023-01-28T16:19:36;5.50;80.60
16287;DHT22;8251;53.568;10.018;2023-01-28T16:22:05;5.50;79.90
16287;DHT22;8251;53.568;10.018;2023-01-28T16:24:42;5.50;80.00
16287;DHT22;8251;53.568;10.018;2023-01-28T16:27:20;5.50;80.30
16287;DHT22;8251;53.568;10.018;2023-01-28T16:29:47;5.40;80.90